Time;durP1;ratioP1;P1;durP2;ratioP2;P2;SDS_P1;SDS_P2;PMS_P1;PMS_P2;Temp;Humidity;BMP_temperature;BMP_pressure;BME280_temperature;BME280_humidity;BME280_pressure;Samples;Min_cycle;Max_cycle;Signal;HPM_P1;HPM_P2
2023/10/15 00:01:08;;;;;;;8.40;2.97;;;10.50;99.90;;;;;;4753143;30;20209;-78
2023/10/15 00:03:41;;;;;;;12.33;3.10;;;10.60;99.90;;;;;;4752806;30;20204;-76
2023/10/15 00:06:16;;;;;;;10.13;2.80;;;10.50;99.90;;;;;;4751753;30;20234;-81
2023/10/15 00:08:59;;;;;;;9.00;2.60;;;10.50;99.90;;;;;;4738191;30;20208;-76
2023/10/15 00:11:34;;;;;;;9.13;2.63;;;10.30;99.90;;;;;;4737372;30;20237;-78
2023/10/15 00:14:13;;;;;;;7.70;2.63;;;10.40;99.90;;;;;;4738596;30;20264;-80
2023/10/15 00:16:43;;;;;;;6.73;2.77;;;10.20;99.90;;;;;;4752219;30;20603;-80
2023/10/15 00:19:14;;;;;;;6.60;2.50;;;10.20;99.90;;;;;;4752276;30;20245;-78
2023/10/15 00:21:46;;;;;;;7.07;2.33;;;10.20;99.90;;;;;;4736991;30;20261;-78
2023/10/15 00:24:20;;;;;;;8.60;2.60;;;10.10;99.90;;;;;;4752672;30;20202;-76
2023/10/15 00:26:50;;;;;;;8.77;2.63;;;10.20;99.90;;;;;;4750958;30;20198;-78
2023/10/15 00:29:24;;;;;;;4.83;2.20;;;10.20;99.90;;;;;;4751753;30;20468;-77
2023/10/15 00:32:06;;;;;;;9.13;2.60;;;9.90;99.90;;;;;;4738684;30;20218;-79
2023/10/15 00:34:45;;;;;;;7.77;2.20;;;10.00;99.90;;;;;;4753231;30;20213;-77
2023/10/15 00:37:18;;;;;;;6.43;1.97;;;10.00;99.90;;;;;;4752242;30;20237;-80
2023/10/15 00:39:49;;;;;;;5.53;2.00;;;9.90;99.90;;;;;;4750489;30;20334;-80
2023/10/15 00:42:23;;;;;;;7.20;2.10;;;9.90;99.90;;;;;;4752303;30;20221;-78
2023/10/15 00:44:58;;;;;;;6.47;2.10;;;9.80;99.90;;;;;;4751994;30;20255;-78
2023/10/15 00:47:35;;;;;;;9.47;2.33;;;9.80;99.90;;;;;;4734772;30;20209;-78
2023/10/15 00:50:09;;;;;;;5.07;2.00;;;10.00;99.90;;;;;;4752714;30;20278;-77
2023/10/15 00:52:44;;;;;;;5.50;2.10;;;9.70;99.90;;;;;;4750711;30;20228;-77
2023/10/15 00:55:23;;;;;;;12.03;2.10;;;9.70;99.90;;;;;;4750731;30;20213;-79
2023/10/15 00:57:56;;;;;;;7.93;2.20;;;9.90;99.90;;;;;;4749951;30;20701;-79
2023/10/15 01:00:48;;;;;;;6.43;2.00;;;9.60;99.90;;;;;;4737398;30;20233;-78
2023/10/15 01:03:37;;;;;;;6.73;2.30;;;9.50;99.90;;;;;;4752082;30;20236;-78
2023/10/15 01:06:06;;;;;;;5.77;2.03;;;9.50;99.90;;;;;;4736294;30;20213;-78
2023/10/15 01:08:39;;;;;;;10.10;2.30;;;9.70;99.90;;;;;;4751829;30;20209;-77
2023/10/15 01:11:18;;;;;;;6.83;1.70;;;9.70;99.90;;;;;;4752373;30;20653;-81
2023/10/15 01:13:49;;;;;;;5.90;2.10;;;9.50;99.90;;;;;;4752806;30;20215;-78
2023/10/15 01:16:23;;;;;;;6.47;2.40;;;9.60;99.90;;;;;;4750358;30;20205;-78
2023/10/15 01:18:59;;;;;;;6.57;2.43;;;9.20;99.90;;;;;;4751490;30;20284;-77
2023/10/15 01:21:57;;;;;;;8.30;1.97;;;9.40;99.90;;;;;;4749304;30;20226;-78
2023/10/15 01:24:33;;;;;;;7.90;2.07;;;9.30;99.90;;;;;;4750232;30;20209;-76
2023/10/15 01:29:55;;;;;;;10.47;2.70;;;9.10;99.90;;;;;;4735809;30;20742;-79
2023/10/15 01:32:31;;;;;;;8.03;2.17;;;9.00;99.90;;;;;;4752467;30;20685;-81
2023/10/15 01:35:10;;;;;;;6.50;2.30;;;9.30;99.90;;;;;;4752229;30;20274;-79
2023/10/15 01:37:38;;;;;;;6.47;2.23;;;9.00;99.90;;;;;;4751557;30;20221;-78
2023/10/15 01:42:40;;;;;;;6.57;2.07;;;8.90;99.90;;;;;;4750906;30;20194;-78
2023/10/15 01:50:49;;;;;;;6.63;2.13;;;8.90;99.90;;;;;;4735726;30;20225;-79
2023/10/15 01:53:23;;;;;;;8.13;2.03;;;8.90;99.90;;;;;;4735314;30;20296;-77
2023/10/15 01:55:59;;;;;;;6.10;1.90;;;8.80;99.90;;;;;;4737489;30;20236;-76
2023/10/15 01:58:31;;;;;;;6.00;1.93;;;8.70;99.90;;;;;;4735025;30;20241;-77
2023/10/15 02:01:34;;;;;;;6.90;1.87;;;8.70;99.90;;;;;;4750150;30;20315;-79
2023/10/15 02:06:55;;;;;;;5.60;1.80;;;8.70;99.90;;;;;;4749700;30;20315;-77
2023/10/15 02:09:29;;;;;;;10.00;2.00;;;8.60;99.90;;;;;;4751274;30;20205;-75
2023/10/15 02:12:02;;;;;;;4.97;1.80;;;8.70;99.90;;;;;;4749659;30;20266;-78
2023/10/15 02:14:35;;;;;;;4.67;1.67;;;8.80;99.90;;;;;;4735282;30;20203;-80
2023/10/15 02:17:06;;;;;;;6.03;1.90;;;8.90;99.90;;;;;;4751328;30;20208;-80
2023/10/15 02:19:40;;;;;;;7.07;2.17;;;8.70;99.90;;;;;;4750476;30;20220;-78
2023/10/15 02:22:16;;;;;;;6.63;1.83;;;8.60;99.90;;;;;;4751139;30;20726;-82
2023/10/15 02:24:49;;;;;;;7.00;1.90;;;8.80;99.90;;;;;;4736875;30;20192;-80
2023/10/15 02:27:24;;;;;;;4.03;1.70;;;8.50;99.90;;;;;;4750310;30;20206;-80
2023/10/15 02:29:54;;;;;;;7.43;1.80;;;8.60;99.90;;;;;;4749920;30;20720;-79
2023/10/15 02:34:58;;;;;;;6.43;1.90;;;8.70;99.90;;;;;;4750926;30;20242;-78
2023/10/15 02:37:27;;;;;;;6.53;1.83;;;8.50;99.90;;;;;;4734538;30;20314;-77
2023/10/15 02:40:00;;;;;;;3.90;1.70;;;8.70;99.90;;;;;;4750460;30;20298;-81
2023/10/15 02:42:37;;;;;;;5.23;2.17;;;8.60;99.90;;;;;;4750614;30;20568;-79
2023/10/15 02:45:14;;;;;;;4.03;1.57;;;8.40;99.90;;;;;;4750919;30;20208;-77
2023/10/15 02:47:55;;;;;;;5.53;1.47;;;8.40;99.90;;;;;;4735083;30;20212;-78
2023/10/15 02:50:33;;;;;;;6.73;1.90;;;8.30;99.90;;;;;;4748017;30;20240;-79
2023/10/15 02:53:05;;;;;;;12.30;2.43;;;8.40;99.90;;;;;;4750553;30;20185;-78
2023/10/15 02:55:47;;;;;;;7.83;1.97;;;8.40;99.90;;;;;;4748980;30;20214;-80
2023/10/15 02:58:22;;;;;;;7.60;1.97;;;8.40;99.90;;;;;;4734653;30;20241;-81
2023/10/15 03:01:12;;;;;;;6.87;1.80;;;8.20;99.90;;;;;;4749123;30;20229;-77
2023/10/15 03:03:49;;;;;;;4.90;2.03;;;8.20;99.90;;;;;;4735783;30;20284;-79
2023/10/15 03:08:59;;;;;;;8.10;1.93;;;8.20;99.90;;;;;;4750102;30;20204;-79
2023/10/15 03:11:33;;;;;;;7.23;1.90;;;8.20;99.90;;;;;;4747677;30;20284;-78
2023/10/15 03:14:12;;;;;;;6.43;1.70;;;8.10;99.90;;;;;;4749994;30;20201;-79
2023/10/15 03:16:49;;;;;;;6.87;1.90;;;8.40;99.90;;;;;;4749396;30;20219;-80
2023/10/15 03:19:18;;;;;;;6.20;1.80;;;8.30;99.90;;;;;;4734614;30;20275;-81
2023/10/15 03:21:58;;;;;;;6.27;1.70;;;8.30;99.90;;;;;;4751229;30;20307;-80
2023/10/15 03:24:45;;;;;;;4.50;1.60;;;8.20;99.90;;;;;;4749060;30;20255;-78
2023/10/15 03:27:17;;;;;;;4.60;1.70;;;7.90;99.90;;;;;;4753961;30;20571;-78
2023/10/15 03:29:50;;;;;;;5.77;1.50;;;8.30;99.90;;;;;;4737966;30;20217;-79
2023/10/15 03:32:27;;;;;;;7.00;1.77;;;8.20;99.90;;;;;;4738855;30;20208;-79
2023/10/15 03:38:06;;;;;;;9.13;2.27;;;8.20;99.90;;;;;;4752947;30;20225;-77
2023/10/15 03:43:20;;;;;;;6.07;1.50;;;7.90;99.90;;;;;;4753723;30;20276;-77
2023/10/15 03:45:51;;;;;;;5.80;1.60;;;7.90;99.90;;;;;;4751892;30;20202;-78
2023/10/15 03:48:47;;;;;;;5.87;1.53;;;8.20;99.90;;;;;;4751577;30;20352;-78
2023/10/15 03:51:23;;;;;;;9.23;1.90;;;7.90;99.90;;;;;;4751994;30;20305;-78
2023/10/15 03:53:52;;;;;;;8.90;1.80;;;7.90;99.90;;;;;;4751893;30;20258;-77
2023/10/15 03:56:33;;;;;;;6.77;2.00;;;8.10;99.90;;;;;;4751912;30;20677;-79
2023/10/15 03:59:12;;;;;;;6.27;1.70;;;7.70;99.90;;;;;;4751538;30;20272;-82
2023/10/15 04:01:51;;;;;;;7.17;1.80;;;7.80;99.90;;;;;;4737241;30;20230;-81
2023/10/15 04:04:27;;;;;;;6.87;1.97;;;8.00;99.90;;;;;;4737663;30;20533;-78
2023/10/15 04:07:19;;;;;;;8.43;1.80;;;7.70;99.90;;;;;;4736934;30;20251;-78
2023/10/15 04:10:04;;;;;;;5.87;1.73;;;7.90;99.90;;;;;;4752368;30;20268;-76
2023/10/15 04:12:35;;;;;;;8.70;1.77;;;7.70;99.90;;;;;;4752593;30;20212;-78
2023/10/15 04:15:22;;;;;;;6.90;1.70;;;7.80;99.90;;;;;;4752457;30;20204;-81
2023/10/15 04:18:17;;;;;;;5.77;1.70;;;7.70;99.90;;;;;;4753075;30;20192;-80
2023/10/15 04:20:53;;;;;;;7.40;1.87;;;7.60;99.90;;;;;;4736851;30;20244;-79
2023/10/15 04:23:30;;;;;;;7.53;1.80;;;7.70;99.90;;;;;;4752854;30;20229;-77
2023/10/15 04:26:15;;;;;;;3.83;1.30;;;7.50;99.90;;;;;;4753007;30;20567;-79
2023/10/15 04:28:45;;;;;;;4.57;1.80;;;7.70;99.90;;;;;;4736790;30;20634;-78
2023/10/15 04:31:39;;;;;;;6.20;1.73;;;7.50;99.90;;;;;;4753108;30;20190;-81
2023/10/15 04:34:18;;;;;;;4.00;1.53;;;7.50;99.90;;;;;;4751621;30;20244;-80
2023/10/15 04:36:51;;;;;;;9.67;2.00;;;7.30;99.90;;;;;;4736703;30;20224;-79
2023/10/15 04:39:28;;;;;;;8.03;1.80;;;7.40;99.90;;;;;;4752783;30;20192;-78
2023/10/15 04:42:21;;;;;;;7.93;2.20;;;7.60;99.90;;;;;;4752942;30;20202;-78
2023/10/15 04:44:54;;;;;;;7.90;2.13;;;7.40;99.90;;;;;;4736387;30;20231;-78
2023/10/15 04:47:38;;;;;;;12.23;2.07;;;7.60;99.90;;;;;;4736347;30;20300;-78
2023/10/15 04:50:15;;;;;;;4.57;1.53;;;7.20;99.90;;;;;;4752096;30;20199;-78
2023/10/15 04:52:43;;;;;;;7.03;2.30;;;7.30;99.90;;;;;;4741329;30;20673;-77
2023/10/15 04:55:17;;;;;;;5.60;1.63;;;7.30;99.90;;;;;;4751796;30;20212;-78
2023/10/15 04:57:52;;;;;;;7.93;1.90;;;7.20;99.90;;;;;;4751486;30;20237;-80
2023/10/15 05:00:25;;;;;;;9.47;2.27;;;7.40;99.90;;;;;;4751571;30;20564;-78
2023/10/15 05:02:59;;;;;;;6.53;1.80;;;7.30;99.90;;;;;;4751935;30;20204;-81
2023/10/15 05:05:30;;;;;;;5.40;1.70;;;7.30;99.90;;;;;;4751782;30;20197;-82
2023/10/15 05:08:02;;;;;;;7.63;1.90;;;7.50;99.90;;;;;;4752040;30;20282;-78
2023/10/15 05:10:38;;;;;;;10.10;1.87;;;7.30;99.90;;;;;;4751443;30;20204;-79
2023/10/15 05:13:24;;;;;;;5.80;1.63;;;7.40;99.90;;;;;;4734836;30;20211;-78
2023/10/15 05:15:53;;;;;;;8.70;1.93;;;7.30;99.90;;;;;;4736717;30;20572;-78
2023/10/15 05:18:21;;;;;;;8.07;1.90;;;7.40;99.90;;;;;;4736111;30;20209;-78
2023/10/15 05:20:53;;;;;;;6.40;2.30;;;7.50;99.90;;;;;;4750139;30;20604;-79
2023/10/15 05:23:28;;;;;;;9.00;2.17;;;7.40;99.90;;;;;;4735839;30;20667;-79
2023/10/15 05:26:01;;;;;;;7.23;1.87;;;7.40;99.90;;;;;;4751262;30;20369;-81
2023/10/15 05:28:48;;;;;;;8.53;2.13;;;7.50;99.90;;;;;;4751927;30;20212;-78
2023/10/15 05:31:21;;;;;;;7.03;2.30;;;7.30;99.90;;;;;;4749722;30;20205;-79
2023/10/15 05:33:58;;;;;;;6.83;2.10;;;7.40;99.90;;;;;;4749917;30;20654;-80
2023/10/15 05:36:33;;;;;;;6.77;1.80;;;7.30;99.90;;;;;;4750629;30;20248;-79
2023/10/15 05:39:10;;;;;;;7.73;1.87;;;7.30;99.90;;;;;;4751035;30;20197;-81
2023/10/15 05:41:44;;;;;;;6.47;2.00;;;7.30;99.90;;;;;;4751361;30;20290;-80
2023/10/15 05:44:22;;;;;;;8.63;2.13;;;7.50;99.90;;;;;;4749912;30;20559;-76
2023/10/15 05:46:50;;;;;;;8.70;2.13;;;7.40;99.90;;;;;;4751045;30;20353;-80
2023/10/15 05:49:22;;;;;;;8.63;2.07;;;7.60;99.90;;;;;;4735569;30;20235;-78
2023/10/15 05:51:55;;;;;;;10.30;2.30;;;7.60;99.90;;;;;;4750798;30;20564;-79
2023/10/15 05:54:24;;;;;;;6.67;1.87;;;7.40;99.90;;;;;;4750989;30;20201;-78
2023/10/15 05:56:58;;;;;;;9.10;1.90;;;7.60;99.90;;;;;;4751524;30;20200;-80
2023/10/15 05:59:28;;;;;;;10.23;2.20;;;7.70;99.90;;;;;;4749921;30;20245;-80
2023/10/15 06:01:59;;;;;;;8.30;2.03;;;7.60;99.90;;;;;;4749934;30;20260;-79
2023/10/15 06:04:26;;;;;;;5.53;2.20;;;7.60;99.90;;;;;;4720668;30;20225;-77
2023/10/15 06:07:05;;;;;;;6.23;1.90;;;7.70;99.90;;;;;;4750595;30;20271;-79
2023/10/15 06:09:38;;;;;;;8.73;1.90;;;7.70;99.90;;;;;;4750250;30;20661;-78
2023/10/15 06:12:44;;;;;;;7.43;2.00;;;7.80;99.90;;;;;;4750746;30;20211;-85
2023/10/15 06:15:23;;;;;;;4.97;1.90;;;7.70;99.90;;;;;;4749826;30;20216;-85
2023/10/15 06:18:21;;;;;;;5.60;1.80;;;7.90;99.90;;;;;;4745980;30;20542;-85
2023/10/15 06:21:00;;;;;;;7.03;2.10;;;8.10;99.90;;;;;;4735645;30;20353;-87
2023/10/15 06:23:58;;;;;;;7.27;2.20;;;7.90;99.90;;;;;;4735214;30;20188;-78
2023/10/15 06:26:28;;;;;;;7.73;1.80;;;8.10;99.90;;;;;;4746990;30;20227;-77
2023/10/15 06:29:19;;;;;;;9.57;2.07;;;8.20;99.90;;;;;;4749442;30;20217;-84
2023/10/15 06:31:59;;;;;;;10.37;1.80;;;8.20;99.90;;;;;;4719950;30;20352;-82
2023/10/15 06:34:39;;;;;;;6.27;1.90;;;7.90;99.90;;;;;;4734649;30;20360;-84
2023/10/15 06:37:26;;;;;;;8.47;2.13;;;8.40;99.90;;;;;;4732611;30;20596;-78
2023/10/15 06:40:10;;;;;;;7.73;2.00;;;8.40;99.90;;;;;;4749073;30;20506;-79
2023/10/15 06:43:00;;;;;;;8.17;2.00;;;8.20;99.90;;;;;;4718617;30;20285;-78
2023/10/15 06:46:23;;;;;;;6.47;1.80;;;8.40;99.90;;;;;;4720137;30;20344;-80
2023/10/15 06:49:11;;;;;;;8.60;1.97;;;8.40;99.90;;;;;;4925099;24;20245;-79
2023/10/15 06:51:54;;;;;;;9.43;2.10;;;8.50;99.90;;;;;;4759401;30;20217;-79
2023/10/15 06:54:26;;;;;;;7.67;1.97;;;8.60;99.90;;;;;;4753255;30;20201;-79
2023/10/15 06:56:58;;;;;;;8.83;1.90;;;8.60;99.90;;;;;;4753150;30;20213;-79
2023/10/15 06:59:31;;;;;;;5.97;1.80;;;8.50;99.90;;;;;;4768514;30;20199;-79
2023/10/15 07:02:03;;;;;;;8.20;2.03;;;8.70;99.90;;;;;;4753588;30;20262;-78
2023/10/15 07:04:36;;;;;;;8.43;1.70;;;8.90;99.90;;;;;;4736136;30;20233;-81
2023/10/15 07:07:18;;;;;;;7.67;1.60;;;8.70;99.90;;;;;;4743086;30;20276;-80
2023/10/15 07:09:52;;;;;;;6.70;1.70;;;9.00;99.90;;;;;;4739470;30;20194;-80
2023/10/15 07:12:29;;;;;;;10.53;2.27;;;9.00;99.90;;;;;;4737685;30;20749;-80
2023/10/15 07:15:05;;;;;;;12.00;2.43;;;9.00;99.90;;;;;;4770767;30;20250;-79
2023/10/15 07:17:54;;;;;;;6.10;1.80;;;9.30;99.90;;;;;;4768148;30;20220;-79
2023/10/15 07:20:28;;;;;;;7.43;1.70;;;9.10;99.90;;;;;;4741146;30;20232;-83
2023/10/15 07:23:21;;;;;;;6.83;1.77;;;9.00;99.90;;;;;;4772341;30;20201;-84
2023/10/15 07:25:54;;;;;;;7.70;2.10;;;9.20;99.90;;;;;;4755724;30;20221;-79
2023/10/15 07:28:30;;;;;;;8.63;2.00;;;9.10;99.90;;;;;;4771874;30;20208;-79
2023/10/15 07:31:00;;;;;;;8.03;1.83;;;9.00;99.90;;;;;;4755798;30;20199;-81
2023/10/15 07:33:46;;;;;;;9.13;2.10;;;9.30;99.90;;;;;;4764968;30;20306;-79
2023/10/15 07:37:06;;;;;;;7.50;1.87;;;9.30;99.90;;;;;;4747592;30;20691;-83
2023/10/15 07:40:48;;;;;;;9.13;1.97;;;9.20;99.90;;;;;;4744958;30;20214;-85
2023/10/15 07:45:06;;;;;;;8.63;2.23;;;9.20;99.90;;;;;;4735192;30;20219;-83
2023/10/15 08:22:20;;;;;;;;;;;;;;;;;;;;;
2023/10/15 09:06:34;;;;;;;6.40;1.70;;;9.60;99.90;;;;;;4746173;30;20197;-81
2023/10/15 09:41:40;;;;;;;5.37;1.70;;;10.50;99.90;;;;;;4712249;30;20238;-84
2023/10/15 09:44:28;;;;;;;6.17;1.80;;;10.20;99.90;;;;;;4686489;30;20207;-80
2023/10/15 09:47:24;;;;;;;;;;;;;;;;;;;;;
2023/10/15 09:50:42;;;;;;;5.00;1.67;;;10.10;99.90;;;;;;4663101;30;20798;-80
2023/10/15 09:53:59;;;;;;;4.10;1.43;;;9.80;99.90;;;;;;4669220;30;20731;-85
2023/10/15 09:57:22;;;;;;;4.90;1.30;;;10.20;99.90;;;;;;4651938;30;20242;-83
2023/10/15 10:05:41;;;;;;;4.20;1.37;;;9.90;99.90;;;;;;4574128;31;20645;-79
2023/10/15 10:12:51;;;;;;;4.97;1.57;;;9.60;99.90;;;;;;4537791;31;20298;-83
2023/10/15 10:16:08;;;;;;;4.20;1.70;;;9.70;99.90;;;;;;4504512;31;20316;-81
2023/10/15 10:18:39;;;;;;;6.73;1.60;;;10.00;99.90;;;;;;4518216;31;20249;-86
2023/10/15 10:21:15;;;;;;;7.03;1.50;;;10.00;99.90;;;;;;4510119;31;20250;-89
2023/10/15 10:23:43;;;;;;;6.97;1.60;;;9.70;99.90;;;;;;4528335;31;20205;-78
2023/10/15 10:26:14;;;;;;;6.33;1.70;;;9.70;99.90;;;;;;4529587;31;20199;-87
2023/10/15 10:28:40;;;;;;;4.53;1.60;;;9.90;99.90;;;;;;4517471;31;20198;-88
2023/10/15 10:31:14;;;;;;;5.07;1.30;;;9.80;99.90;;;;;;4532828;31;20241;-89
2023/10/15 10:33:43;;;;;;;5.40;1.40;;;9.70;99.90;;;;;;4531931;31;20206;-79
2023/10/15 10:36:17;;;;;;;5.30;1.60;;;9.70;99.90;;;;;;4554637;31;20274;-77
2023/10/15 10:38:59;;;;;;;6.30;1.43;;;9.60;99.90;;;;;;4568954;31;20706;-78
2023/10/15 10:42:26;;;;;;;6.33;1.77;;;9.60;99.90;;;;;;4655145;30;20248;-79
2023/10/15 10:45:43;;;;;;;4.43;1.60;;;9.60;99.90;;;;;;4683001;30;20204;-89
2023/10/15 10:48:38;;;;;;;4.73;1.53;;;9.70;99.90;;;;;;4701898;30;20648;-77
2023/10/15 10:51:21;;;;;;;3.53;1.40;;;9.70;99.90;;;;;;4751488;30;20342;-76
2023/10/15 10:53:56;;;;;;;7.83;1.80;;;9.60;99.90;;;;;;4736440;30;20212;-78
2023/10/15 10:56:38;;;;;;;4.67;1.60;;;9.70;99.90;;;;;;4750882;30;20206;-76
2023/10/15 10:59:15;;;;;;;5.47;1.50;;;9.90;99.90;;;;;;4737262;30;20226;-78
2023/10/15 11:01:50;;;;;;;6.63;1.87;;;9.90;99.90;;;;;;4751365;30;20217;-88
2023/10/15 11:04:27;;;;;;;5.37;1.43;;;9.70;99.90;;;;;;4736825;30;20499;-78
2023/10/15 11:07:03;;;;;;;7.60;2.00;;;9.60;99.90;;;;;;4737245;30;20221;-90
2023/10/15 11:10:03;;;;;;;4.13;1.47;;;9.60;99.90;;;;;;4722933;30;20351;-79
2023/10/15 11:12:49;;;;;;;7.60;1.63;;;9.70;99.90;;;;;;4738179;30;20687;-78
2023/10/15 11:15:30;;;;;;;3.63;1.40;;;9.90;99.90;;;;;;4735731;30;20221;-78
2023/10/15 11:18:22;;;;;;;4.17;1.30;;;9.80;99.90;;;;;;4736672;30;20335;-76
2023/10/15 11:21:33;;;;;;;4.23;1.43;;;9.90;99.90;;;;;;4750705;30;20232;-79
2023/10/15 11:24:31;;;;;;;7.70;1.90;;;9.80;99.90;;;;;;4686303;30;20219;-90
2023/10/15 11:27:31;;;;;;;3.13;1.30;;;9.90;99.90;;;;;;4686260;30;20573;-79
2023/10/15 11:30:25;;;;;;;4.60;1.80;;;10.30;99.90;;;;;;4695232;30;20856;-78
2023/10/15 11:33:25;;;;;;;4.27;1.43;;;10.10;99.90;;;;;;4693963;30;20751;-80
2023/10/15 11:36:28;;;;;;;6.50;1.60;;;10.10;99.90;;;;;;4684257;30;20232;-90
2023/10/15 11:39:17;;;;;;;6.33;1.80;;;10.10;99.90;;;;;;4684480;30;20220;-89
2023/10/15 11:41:56;;;;;;;5.60;1.47;;;9.90;99.90;;;;;;4697391;30;20231;-78
2023/10/15 11:44:46;;;;;;;7.77;1.53;;;10.00;99.90;;;;;;4697870;30;20216;-79
2023/10/15 11:47:24;;;;;;;6.10;1.50;;;10.00;99.90;;;;;;4683430;30;20226;-80
2023/10/15 11:50:06;;;;;;;3.60;1.27;;;10.10;99.90;;;;;;4699506;30;20221;-88
2023/10/15 11:53:00;;;;;;;3.03;1.20;;;9.60;99.90;;;;;;4696418;30;20252;-78
2023/10/15 11:55:38;;;;;;;8.50;2.10;;;9.70;99.90;;;;;;4698200;30;20695;-77
2023/10/15 11:58:10;;;;;;;5.07;1.70;;;9.90;99.90;;;;;;4684228;30;20596;-76
2023/10/15 12:01:10;;;;;;;5.63;1.43;;;9.70;99.90;;;;;;4713745;30;20211;-79
2023/10/15 12:03:49;;;;;;;5.10;1.53;;;9.40;99.90;;;;;;4736542;30;20228;-88
2023/10/15 12:06:42;;;;;;;4.10;1.53;;;9.70;99.90;;;;;;4721464;30;20246;-76
2023/10/15 12:09:27;;;;;;;3.13;1.50;;;9.80;99.90;;;;;;4734414;30;20232;-78
2023/10/15 12:12:18;;;;;;;4.73;1.97;;;9.80;99.90;;;;;;4735259;30;20210;-77
2023/10/15 12:15:01;;;;;;;6.57;1.50;;;9.80;99.90;;;;;;4748992;30;20815;-85
2023/10/15 12:17:31;;;;;;;5.57;1.50;;;10.20;99.90;;;;;;4735443;30;20252;-87
2023/10/15 12:20:06;;;;;;;5.30;1.87;;;10.00;99.90;;;;;;4736925;30;20237;-87
2023/10/15 12:23:00;;;;;;;6.07;1.83;;;10.00;99.90;;;;;;4723570;30;20246;-86
2023/10/15 12:25:38;;;;;;;5.73;2.00;;;10.10;99.90;;;;;;4724971;30;20613;-86
2023/10/15 12:33:00;;;;;;;;;;;;;;;;;;;;;
2023/10/15 12:35:55;;;;;;;4.87;1.60;;;10.00;99.90;;;;;;4744097;30;20221;-78
2023/10/15 12:43:00;;;;;;;6.47;1.90;;;9.70;99.90;;;;;;4750806;30;20233;-84
2023/10/15 12:46:46;;;;;;;24.93;9.43;;;9.90;99.90;;;;;;4747989;30;20276;-78
2023/10/15 12:50:33;;;;;;;6.10;2.00;;;9.80;99.90;;;;;;4702239;30;20219;-78
2023/10/15 12:54:17;;;;;;;4.80;1.73;;;9.80;99.90;;;;;;4745908;30;20306;-83
2023/10/15 12:57:36;;;;;;;8.87;2.73;;;10.00;99.90;;;;;;4716877;30;20220;-77
2023/10/15 13:00:30;;;;;;;5.73;1.60;;;10.00;99.90;;;;;;4743926;30;20210;-80
2023/10/15 13:03:38;;;;;;;4.83;1.67;;;10.00;99.90;;;;;;4677462;30;20204;-83
2023/10/15 13:06:12;;;;;;;4.67;1.70;;;10.10;99.90;;;;;;4665491;30;20263;-76
2023/10/15 13:08:46;;;;;;;6.10;1.73;;;10.00;99.90;;;;;;4666166;30;20196;-81
2023/10/15 13:11:32;;;;;;;5.73;1.70;;;10.20;99.90;;;;;;4678345;30;20623;-81
2023/10/15 13:14:24;;;;;;;6.37;2.30;;;10.10;99.90;;;;;;4627730;31;20214;-81
2023/10/15 13:16:58;;;;;;;5.23;2.20;;;10.20;99.90;;;;;;4614509;31;20451;-83
2023/10/15 13:20:02;;;;;;;4.90;1.80;;;10.20;99.90;;;;;;4628486;31;20305;-81
2023/10/15 13:23:05;;;;;;;;;;;;;;;;;;;;;
2023/10/15 13:26:39;;;;;;;5.27;1.90;;;10.10;99.90;;;;;;4575293;31;20635;-83
2023/10/15 13:29:54;;;;;;;5.40;1.97;;;10.30;99.90;;;;;;4594043;31;20675;-83
2023/10/15 13:36:48;;;;;;;;;;;;;;;;;;;;;
2023/10/15 13:40:10;;;;;;;6.90;1.97;;;9.80;99.90;;;;;;4544643;31;20449;-79
2023/10/15 13:43:27;;;;;;;3.63;1.67;;;9.80;99.90;;;;;;4545209;31;20241;-81
2023/10/15 13:47:18;;;;;;;4.33;1.80;;;9.80;99.90;;;;;;4529451;31;20627;-82
2023/10/15 13:50:37;;;;;;;10.43;2.23;;;9.80;99.90;;;;;;4551995;31;20213;-82
2023/10/15 13:53:14;;;;;;;7.77;2.20;;;9.50;99.90;;;;;;4527439;31;20245;-82
2023/10/15 13:55:46;;;;;;;6.37;2.20;;;9.50;99.90;;;;;;4507816;31;20302;-83
2023/10/15 13:58:22;;;;;;;6.10;2.27;;;9.70;99.90;;;;;;4500686;31;20661;-81
2023/10/15 14:00:56;;;;;;;6.03;2.40;;;9.50;99.90;;;;;;4506431;31;20213;-80
2023/10/15 14:03:27;;;;;;;6.80;2.20;;;9.70;99.90;;;;;;4555685;31;20324;-82
2023/10/15 14:05:58;;;;;;;5.87;1.93;;;9.70;99.90;;;;;;4562646;31;20229;-83
2023/10/15 14:08:32;;;;;;;6.00;2.13;;;9.50;99.90;;;;;;4562544;31;20235;-82
2023/10/15 14:11:03;;;;;;;5.03;1.87;;;9.70;99.90;;;;;;4575778;31;20217;-78
2023/10/15 14:13:32;;;;;;;7.70;2.20;;;9.60;99.90;;;;;;4561855;31;20266;-82
2023/10/15 14:16:02;;;;;;;7.83;2.27;;;9.80;99.90;;;;;;4581127;31;20239;-80
2023/10/15 14:18:35;;;;;;;6.00;2.00;;;9.70;99.90;;;;;;4580641;31;20251;-80
2023/10/15 14:21:26;;;;;;;5.73;2.27;;;9.70;99.90;;;;;;4595196;31;20235;-79
2023/10/15 14:24:05;;;;;;;5.03;2.17;;;9.80;99.90;;;;;;4594257;31;20211;-82
2023/10/15 14:26:41;;;;;;;5.80;2.00;;;9.80;99.90;;;;;;4628059;30;20298;-84
2023/10/15 14:29:30;;;;;;;5.00;2.10;;;9.50;99.90;;;;;;4705947;30;20270;-83
2023/10/15 14:32:49;;;;;;;6.73;1.93;;;10.00;99.90;;;;;;4722201;30;20274;-82
2023/10/15 14:35:44;;;;;;;4.97;2.10;;;9.40;99.90;;;;;;4716863;30;20203;-80
2023/10/15 14:38:33;;;;;;;5.40;2.30;;;9.80;99.90;;;;;;4717956;30;20229;-78
2023/10/15 14:41:14;;;;;;;3.37;1.90;;;9.70;99.90;;;;;;4704592;30;20230;-82
2023/10/15 14:43:53;;;;;;;6.10;2.20;;;9.70;99.90;;;;;;4732287;30;20210;-81
2023/10/15 14:46:29;;;;;;;5.67;2.27;;;9.80;99.90;;;;;;4718223;30;20217;-79
2023/10/15 14:49:01;;;;;;;7.07;2.17;;;9.80;99.90;;;;;;4717194;30;20305;-77
2023/10/15 14:51:29;;;;;;;5.13;2.03;;;9.90;99.90;;;;;;4733523;30;20287;-77
2023/10/15 14:54:01;;;;;;;6.53;2.10;;;9.60;99.90;;;;;;4733157;30;20530;-78
2023/10/15 14:56:32;;;;;;;3.77;1.70;;;9.60;99.90;;;;;;4731829;30;20249;-77
2023/10/15 14:59:00;;;;;;;8.43;2.53;;;9.60;99.90;;;;;;4731759;30;20548;-76
2023/10/15 15:01:30;;;;;;;4.97;2.00;;;9.60;99.90;;;;;;4717603;30;20214;-77
2023/10/15 15:03:58;;;;;;;6.60;2.33;;;9.80;99.90;;;;;;4734575;30;20532;-76
2023/10/15 15:06:26;;;;;;;5.63;2.20;;;9.70;99.90;;;;;;4761332;30;20585;-75
2023/10/15 15:08:54;;;;;;;5.60;2.03;;;9.70;99.90;;;;;;4732088;30;20229;-76
2023/10/15 15:11:21;;;;;;;4.73;1.80;;;9.70;99.90;;;;;;4732917;30;20203;-76
2023/10/15 15:13:49;;;;;;;5.60;2.30;;;10.00;99.90;;;;;;4746144;30;20216;-76
2023/10/15 15:16:16;;;;;;;5.43;2.10;;;10.00;99.90;;;;;;4716547;30;20233;-75
2023/10/15 15:18:45;;;;;;;7.13;2.00;;;9.80;99.90;;;;;;4732005;30;20732;-73
2023/10/15 15:21:12;;;;;;;8.30;2.37;;;9.90;99.90;;;;;;4730388;30;20230;-75
2023/10/15 15:23:41;;;;;;;4.43;2.20;;;9.90;99.90;;;;;;4735195;30;20699;-73
2023/10/15 15:26:10;;;;;;;7.57;2.27;;;9.70;99.90;;;;;;4736295;30;20206;-76
2023/10/15 15:28:38;;;;;;;6.70;2.63;;;9.70;99.90;;;;;;4735769;30;20206;-75
2023/10/15 15:31:07;;;;;;;6.80;2.47;;;9.60;99.90;;;;;;4735696;30;20566;-76
2023/10/15 15:33:35;;;;;;;6.80;2.40;;;9.60;99.90;;;;;;4734772;30;20296;-78
2023/10/15 15:36:04;;;;;;;9.70;2.77;;;9.80;99.90;;;;;;4734739;30;20226;-77
2023/10/15 15:38:31;;;;;;;6.83;2.73;;;9.60;99.90;;;;;;4735304;30;20210;-76
2023/10/15 15:41:08;;;;;;;7.67;2.33;;;9.60;99.90;;;;;;4735727;30;20658;-78
2023/10/15 15:43:35;;;;;;;9.07;2.77;;;9.60;99.90;;;;;;4734464;30;20230;-76
2023/10/15 15:46:10;;;;;;;6.27;2.40;;;9.70;99.90;;;;;;4734850;30;20209;-76
2023/10/15 15:48:38;;;;;;;7.90;2.50;;;9.60;99.90;;;;;;4733604;30;20222;-76
2023/10/15 15:51:06;;;;;;;7.63;2.30;;;9.80;99.90;;;;;;4733790;30;20230;-78
2023/10/15 15:53:38;;;;;;;6.77;2.43;;;9.50;99.90;;;;;;4735213;30;20272;-76
2023/10/15 15:56:08;;;;;;;5.03;2.20;;;9.50;99.90;;;;;;4734175;30;20301;-76
2023/10/15 15:58:36;;;;;;;9.13;2.37;;;9.40;99.90;;;;;;4734571;30;20210;-77
2023/10/15 16:01:04;;;;;;;5.87;2.40;;;9.40;99.90;;;;;;4734555;30;20256;-76
2023/10/15 16:03:32;;;;;;;6.83;2.60;;;9.40;99.90;;;;;;4735068;30;20232;-76
2023/10/15 16:06:18;;;;;;;7.90;2.83;;;9.30;99.90;;;;;;4734042;30;20253;-76
2023/10/15 16:08:45;;;;;;;7.57;2.80;;;9.40;99.90;;;;;;4734277;30;20524;-76
2023/10/15 16:11:15;;;;;;;8.53;3.30;;;9.40;99.90;;;;;;4732040;30;20221;-74
2023/10/15 16:13:47;;;;;;;7.37;2.80;;;9.20;99.90;;;;;;4734505;30;20249;-76
2023/10/15 16:16:15;;;;;;;5.83;2.43;;;9.10;99.90;;;;;;4733134;30;20693;-76
2023/10/15 16:18:44;;;;;;;6.47;2.63;;;9.10;99.90;;;;;;4732866;30;20372;-76
2023/10/15 16:21:11;;;;;;;8.33;3.00;;;9.10;99.90;;;;;;4734769;30;20710;-76
2023/10/15 16:23:39;;;;;;;11.17;3.73;;;9.10;99.90;;;;;;4733528;30;20308;-77
2023/10/15 16:26:07;;;;;;;6.93;3.30;;;9.00;99.90;;;;;;4733971;30;20198;-76
2023/10/15 16:28:34;;;;;;;8.17;3.43;;;8.90;99.90;;;;;;4735240;30;20691;-76
2023/10/15 16:31:02;;;;;;;10.47;3.67;;;8.90;99.90;;;;;;4734671;30;20270;-76
2023/10/15 16:33:29;;;;;;;8.37;3.30;;;9.00;99.90;;;;;;4734347;30;20242;-76
2023/10/15 16:35:57;;;;;;;8.97;3.60;;;8.70;99.90;;;;;;4734360;30;20249;-76
2023/10/15 16:38:25;;;;;;;10.80;3.07;;;8.60;99.90;;;;;;4733767;30;20241;-76
2023/10/15 16:40:53;;;;;;;10.40;3.40;;;8.60;99.90;;;;;;4732758;30;20538;-75
2023/10/15 16:43:21;;;;;;;9.93;3.40;;;8.80;99.90;;;;;;4734164;30;20249;-77
2023/10/15 16:45:51;;;;;;;7.37;3.37;;;8.40;99.90;;;;;;4734519;30;20566;-77
2023/10/15 16:48:19;;;;;;;8.90;3.30;;;8.40;99.90;;;;;;4733889;30;20665;-75